Time;durP1;ratioP1;P1;durP2;ratioP2;P2;SDS_P1;SDS_P2;PMS_P1;PMS_P2;Temp;Humidity;BMP_temperature;BMP_pressure;BME280_temperature;BME280_humidity;BME280_pressure;Samples;Min_cycle;Max_cycle;Signal;HPM_P1;HPM_P2
2020/12/05 00:01:42;;;;;;;53.23;25.37;;;;;;;-0.52;100.00;100050.00;1756567;82;21137;-63
2020/12/05 00:04:09;;;;;;;52.00;26.27;;;;;;;-0.50;100.00;100053.14;1749100;81;21134;-66
2020/12/05 00:06:37;;;;;;;48.75;25.65;;;;;;;-0.48;100.00;100062.14;1748591;82;21269;-62
2020/12/05 00:09:05;;;;;;;49.15;26.52;;;;;;;-0.46;100.00;100064.37;1748505;82;21282;-67
2020/12/05 00:11:33;;;;;;;46.23;24.57;;;;;;;-0.45;100.00;100068.69;1748811;81;21160;-66
2020/12/05 00:14:01;;;;;;;50.03;26.07;;;;;;;-0.47;100.00;100060.09;1748717;82;21107;-66
2020/12/05 00:16:29;;;;;;;44.10;24.35;;;;;;;-0.47;100.00;100069.83;1748510;82;21107;-62
2020/12/05 00:18:57;;;;;;;47.03;25.57;;;;;;;-0.48;100.00;100062.14;1748751;81;21159;-65
2020/12/05 00:21:26;;;;;;;57.23;26.25;;;;;;;-0.50;100.00;100073.42;1759901;81;21170;-66
2020/12/05 00:23:54;;;;;;;49.25;25.45;;;;;;;-0.49;100.00;100063.77;1788676;79;21206;-65
2020/12/05 00:26:22;;;;;;;52.70;24.52;;;;;;;-0.50;100.00;100067.48;1790417;79;21292;-64
2020/12/05 00:28:51;;;;;;;41.73;22.58;;;;;;;-0.50;100.00;100067.09;1811325;79;21565;-65
2020/12/05 00:31:20;;;;;;;42.20;22.87;;;;;;;-0.52;100.00;100067.36;1811094;79;21147;-62
2020/12/05 00:33:50;;;;;;;53.40;27.40;;;;;;;-0.53;100.00;100079.94;1811044;79;21146;-65
2020/12/05 00:36:19;;;;;;;43.95;22.80;;;;;;;-0.53;100.00;100068.53;1811131;79;21272;-65
2020/12/05 00:38:47;;;;;;;53.02;25.02;;;;;;;-0.50;100.00;100073.81;1811253;79;21300;-63
2020/12/05 00:41:20;;;;;;;52.43;26.15;;;;;;;-0.50;100.00;100076.35;1811274;79;21281;-64
2020/12/05 00:43:48;;;;;;;65.80;29.90;;;;;;;-0.50;100.00;100090.30;1742230;82;21293;-63
2020/12/05 00:46:16;;;;;;;52.55;25.97;;;;;;;-0.47;100.00;100091.39;1811078;79;21142;-64
2020/12/05 00:48:44;;;;;;;61.88;31.65;;;;;;;-0.47;100.00;100080.37;1811062;79;21284;-66
2020/12/05 00:51:12;;;;;;;52.75;27.77;;;;;;;-0.45;100.00;100088.59;1811027;79;21131;-63
2020/12/05 00:53:42;;;;;;;61.98;29.82;;;;;;;-0.46;100.00;100081.77;1742310;82;21595;-65
2020/12/05 00:56:11;;;;;;;60.12;30.62;;;;;;;-0.46;100.00;100078.31;1811210;79;21269;-64
2020/12/05 00:58:38;;;;;;;58.02;28.15;;;;;;;-0.46;100.00;100079.59;1742109;82;21119;-62
2020/12/05 01:01:06;;;;;;;66.95;31.48;;;;;;;-0.47;100.00;100074.91;1811314;79;21142;-64
2020/12/05 01:03:34;;;;;;;70.17;33.10;;;;;;;-0.48;100.00;100068.48;1742114;82;21313;-63
2020/12/05 01:06:02;;;;;;;78.65;36.58;;;;;;;-0.45;100.00;100082.25;1777677;79;21343;-62
2020/12/05 01:08:31;;;;;;;74.32;33.90;;;;;;;-0.45;100.00;100076.30;1762611;81;21134;-65
2020/12/05 01:11:01;;;;;;;79.55;34.65;;;;;;;-0.43;100.00;100065.89;1779609;80;21158;-66
2020/12/05 01:13:28;;;;;;;74.12;33.63;;;;;;;-0.41;100.00;100064.71;1779150;80;21146;-67
2020/12/05 01:15:56;;;;;;;70.40;34.18;;;;;;;-0.42;100.00;100063.84;1779350;80;21284;-65
2020/12/05 01:18:24;;;;;;;72.45;33.53;;;;;;;-0.42;100.00;100071.44;1779593;81;21143;-64
2020/12/05 01:21:01;;;;;;;81.47;34.60;;;;;;;-0.40;100.00;100067.77;1779409;81;21276;-64
2020/12/05 01:23:29;;;;;;;87.70;38.28;;;;;;;-0.39;100.00;100073.31;1779199;80;21142;-64
2020/12/05 01:25:57;;;;;;;91.70;38.80;;;;;;;-0.41;100.00;100077.39;1779261;81;21154;-61
2020/12/05 01:28:24;;;;;;;85.45;36.25;;;;;;;-0.38;100.00;100069.64;1779424;81;21175;-65
2020/12/05 01:30:52;;;;;;;92.08;41.23;;;;;;;-0.36;100.00;100079.48;1779305;80;21166;-64
2020/12/05 01:33:20;;;;;;;94.70;41.83;;;;;;;-0.33;100.00;100079.72;1779279;81;21143;-63
2020/12/05 01:35:48;;;;;;;98.22;40.48;;;;;;;-0.35;100.00;100072.78;1779332;80;21162;-64
2020/12/05 01:38:18;;;;;;;109.50;48.13;;;;;;;-0.38;100.00;100064.56;1779105;81;21301;-67
2020/12/05 01:40:53;;;;;;;94.77;40.33;;;;;;;-0.35;100.00;100061.36;1779246;81;21158;-66
2020/12/05 01:43:22;;;;;;;79.10;35.28;;;;;;;-0.38;100.00;100079.78;1778868;80;21162;-66
2020/12/05 01:45:50;;;;;;;108.97;43.50;;;;;;;-0.44;100.00;100089.06;1779366;80;21174;-67
2020/12/05 01:48:21;;;;;;;101.25;41.48;;;;;;;-0.44;100.00;100072.98;1779309;81;21280;-66
2020/12/05 01:50:51;;;;;;;113.28;43.15;;;;;;;-0.45;100.00;100077.56;1779506;81;21308;-64
2020/12/05 01:53:18;;;;;;;99.75;42.55;;;;;;;-0.46;100.00;100074.16;1769125;79;21272;-64
2020/12/05 01:55:48;;;;;;;110.20;45.50;;;;;;;-0.47;100.00;100086.71;1749099;79;21526;-65
2020/12/05 01:58:17;;;;;;;97.45;44.45;;;;;;;-0.51;100.00;100060.63;1811369;79;21115;-64
2020/12/05 02:00:46;;;;;;;121.30;47.15;;;;;;;-0.51;100.00;100077.10;1773638;79;21311;-66
2020/12/05 02:03:16;;;;;;;117.67;44.65;;;;;;;-0.52;100.00;100072.81;1748644;82;21201;-65
2020/12/05 02:06:20;;;;;;;127.55;46.48;;;;;;;-0.50;100.00;100059.48;1748788;82;21584;-66
2020/12/05 02:09:16;;;;;;;107.43;47.33;;;;;;;-0.52;100.00;100042.00;1762314;79;21119;-64
2020/12/05 02:12:02;;;;;;;110.55;42.85;;;;;;;-0.52;100.00;100059.75;1768523;80;21162;-64
2020/12/05 02:14:31;;;;;;;118.30;45.43;;;;;;;-0.54;100.00;100071.81;1746214;79;21610;-65
2020/12/05 02:17:06;;;;;;;101.38;40.12;;;;;;;-0.58;100.00;100083.80;1762113;81;21170;-65
2020/12/05 02:19:52;;;;;;;103.70;36.58;;;;;;;-0.61;100.00;100087.34;1748834;82;21568;-65
2020/12/05 02:22:25;;;;;;;105.92;42.80;;;;;;;-0.64;100.00;100089.66;1748621;82;21284;-66
2020/12/05 02:24:54;;;;;;;109.92;43.95;;;;;;;-0.68;100.00;100093.25;1747994;82;21304;-64
2020/12/05 02:27:24;;;;;;;121.07;45.25;;;;;;;-0.68;100.00;100100.85;1748742;82;21139;-65
2020/12/05 02:29:52;;;;;;;114.90;42.53;;;;;;;-0.67;100.00;100084.86;1748536;82;21307;-65
2020/12/05 02:32:20;;;;;;;104.75;42.55;;;;;;;-0.68;100.00;100075.50;1748692;82;21538;-65
2020/12/05 02:34:48;;;;;;;117.50;40.92;;;;;;;-0.66;100.00;100081.58;1748551;82;21161;-65
2020/12/05 02:37:20;;;;;;;110.50;43.30;;;;;;;-0.63;100.00;100082.58;1748861;82;21122;-65
2020/12/05 02:39:50;;;;;;;118.62;41.98;;;;;;;-0.59;100.00;100083.27;1748828;82;21158;-64
2020/12/05 02:42:18;;;;;;;104.38;42.55;;;;;;;-0.61;100.00;100094.59;1748542;82;21190;-64
2020/12/05 02:44:53;;;;;;;109.03;38.73;;;;;;;-0.61;100.00;100093.69;1748676;82;21158;-64
2020/12/05 02:47:24;;;;;;;109.20;37.40;;;;;;;-0.63;100.00;100098.66;1748525;82;21308;-64
2020/12/05 02:49:51;;;;;;;100.07;37.42;;;;;;;-0.63;100.00;100085.11;1748553;82;21186;-64
2020/12/05 02:52:20;;;;;;;98.95;36.40;;;;;;;-0.68;100.00;100091.98;1791285;79;21351;-65
2020/12/05 02:54:51;;;;;;;96.20;38.98;;;;;;;-0.70;100.00;100085.03;1779301;81;21151;-65
2020/12/05 02:57:18;;;;;;;101.78;33.83;;;;;;;-0.74;100.00;100089.01;1780750;79;21280;-65
2020/12/05 02:59:46;;;;;;;110.08;42.20;;;;;;;-0.73;100.00;100097.09;1788262;79;21166;-64
2020/12/05 03:02:14;;;;;;;107.67;42.25;;;;;;;-0.71;100.00;100103.17;1761604;81;21158;-65
2020/12/05 03:04:42;;;;;;;109.92;42.40;;;;;;;-0.71;100.00;100109.50;1750948;80;21184;-64
2020/12/05 03:07:10;;;;;;;105.05;40.48;;;;;;;-0.70;100.00;100095.17;1747213;80;21300;-64
2020/12/05 03:09:37;;;;;;;107.10;39.58;;;;;;;-0.70;100.00;100097.70;1748166;80;21153;-64
2020/12/05 03:12:07;;;;;;;94.22;36.28;;;;;;;-0.71;100.00;100099.36;1743176;80;21669;-64
2020/12/05 03:14:36;;;;;;;95.38;36.75;;;;;;;-0.71;100.00;100104.44;1722063;83;21165;-63
2020/12/05 03:17:04;;;;;;;96.85;39.23;;;;;;;-0.69;100.00;100101.63;1704026;84;21213;-63
2020/12/05 03:19:32;;;;;;;101.12;38.83;;;;;;;-0.69;100.00;100112.13;1704058;83;21296;-65
2020/12/05 03:22:00;;;;;;;101.47;39.92;;;;;;;-0.69;100.00;100101.63;1703876;84;21178;-63
2020/12/05 03:24:30;;;;;;;114.22;44.58;;;;;;;-0.71;100.00;100096.83;1776253;79;21297;-66
2020/12/05 03:26:58;;;;;;;108.05;43.78;;;;;;;-0.67;100.00;100092.86;1791594;80;21144;-63
2020/12/05 03:29:26;;;;;;;124.92;47.53;;;;;;;-0.66;100.00;100095.91;1791416;80;21264;-63
2020/12/05 03:31:59;;;;;;;110.83;42.48;;;;;;;-0.64;100.00;100093.47;1791730;79;21106;-62
2020/12/05 03:34:24;;;;;;;94.30;39.53;;;;;;;-0.61;100.00;100100.02;1790650;79;21263;-64
2020/12/05 03:36:52;;;;;;;114.05;44.98;;;;;;;-0.63;100.00;100097.39;1791555;80;21153;-64
2020/12/05 03:39:19;;;;;;;101.65;42.65;;;;;;;-0.62;100.00;100089.00;1791432;79;21229;-63
2020/12/05 03:41:47;;;;;;;100.55;40.95;;;;;;;-0.59;100.00;100095.95;1791358;80;21350;-64
2020/12/05 03:44:15;;;;;;;90.65;35.30;;;;;;;-0.62;100.00;100095.73;1791347;79;21140;-66
2020/12/05 03:46:45;;;;;;;96.05;40.92;;;;;;;-0.65;100.00;100107.80;1791192;79;21598;-65
2020/12/05 03:49:12;;;;;;;86.90;40.33;;;;;;;-0.67;100.00;100091.59;1791352;80;21129;-64
2020/12/05 03:51:41;;;;;;;112.37;41.88;;;;;;;-0.71;100.00;100102.30;1791578;80;21147;-64
2020/12/05 03:54:08;;;;;;;109.05;41.95;;;;;;;-0.71;100.00;100094.30;1791490;80;21572;-64
2020/12/05 03:56:36;;;;;;;105.05;43.23;;;;;;;-0.76;100.00;100088.40;1791384;80;21146;-63
2020/12/05 03:59:04;;;;;;;102.67;41.25;;;;;;;-0.76;100.00;100078.26;1791333;79;21153;-64
2020/12/05 04:01:32;;;;;;;101.25;39.80;;;;;;;-0.75;100.00;100090.15;1791338;79;21296;-64
2020/12/05 04:03:59;;;;;;;89.10;34.60;;;;;;;-0.73;100.00;100089.49;1791394;80;21255;-66
2020/12/05 04:06:28;;;;;;;90.38;35.88;;;;;;;-0.75;100.00;100107.50;1791757;80;21312;-65
2020/12/05 04:08:56;;;;;;;92.35;38.98;;;;;;;-0.75;100.00;100092.30;1791360;80;21239;-65
2020/12/05 04:11:24;;;;;;;90.32;35.28;;;;;;;-0.74;100.00;100096.61;1791515;79;21197;-64
2020/12/05 04:13:52;;;;;;;96.82;38.63;;;;;;;-0.74;100.00;100092.81;1791346;80;21129;-65
2020/12/05 04:16:20;;;;;;;90.95;37.23;;;;;;;-0.72;100.00;100092.52;1791332;79;21292;-63
2020/12/05 04:18:48;;;;;;;88.78;36.42;;;;;;;-0.71;100.00;100086.70;1791521;79;21141;-65
2020/12/05 04:21:15;;;;;;;89.00;36.55;;;;;;;-0.68;100.00;100091.98;1791712;80;21175;-65
2020/12/05 04:23:43;;;;;;;115.17;42.40;;;;;;;-0.69;100.00;100092.77;1789998;79;21149;-65
2020/12/05 04:26:13;;;;;;;118.20;41.60;;;;;;;-0.70;100.00;100096.05;1789201;79;21121;-65
2020/12/05 04:28:41;;;;;;;80.30;32.20;;;;;;;-0.70;100.00;100083.77;1762750;80;21141;-65
2020/12/05 04:31:09;;;;;;;108.12;38.45;;;;;;;-0.71;100.00;100096.83;1788853;79;21149;-64
2020/12/05 04:33:37;;;;;;;143.17;47.33;;;;;;;-0.74;100.00;100086.83;1789045;80;21099;-63
2020/12/05 04:36:08;;;;;;;138.47;50.45;;;;;;;-0.71;100.00;100081.63;1788840;80;21105;-63
2020/12/05 04:38:36;;;;;;;110.88;42.90;;;;;;;-0.69;100.00;100086.42;1788832;79;21288;-64
2020/12/05 04:41:04;;;;;;;141.80;48.68;;;;;;;-0.70;100.00;100101.12;1789033;80;21288;-65
2020/12/05 04:43:35;;;;;;;101.35;39.90;;;;;;;-0.67;100.00;100097.53;1788966;80;21299;-64
2020/12/05 04:46:04;;;;;;;87.22;35.95;;;;;;;-0.68;100.00;100090.72;1789139;80;21118;-63
2020/12/05 04:48:33;;;;;;;88.40;36.70;;;;;;;-0.64;100.00;100096.88;1789097;80;21149;-64
2020/12/05 04:51:03;;;;;;;72.75;29.57;;;;;;;-0.62;100.00;100088.13;1789051;80;21276;-65
2020/12/05 04:53:34;;;;;;;68.72;30.27;;;;;;;-0.58;100.00;100095.20;1788960;80;21133;-64
2020/12/05 04:56:06;;;;;;;78.97;29.72;;;;;;;-0.58;100.00;100101.54;1763647;80;21133;-64
2020/12/05 04:58:37;;;;;;;63.40;30.30;;;;;;;-0.57;100.00;100095.30;1788857;80;21279;-64
2020/12/05 05:01:05;;;;;;;63.17;27.27;;;;;;;-0.59;100.00;100107.36;1788822;80;21130;-64
2020/12/05 05:03:35;;;;;;;52.95;27.87;;;;;;;-0.61;100.00;100093.69;1789023;80;21281;-65
2020/12/05 05:06:03;;;;;;;65.90;31.37;;;;;;;-0.66;100.00;100111.99;1788918;79;21172;-64
2020/12/05 05:08:32;;;;;;;49.63;26.42;;;;;;;-0.67;100.00;100126.69;1788826;79;21125;-63
2020/12/05 05:11:10;;;;;;;64.80;30.70;;;;;;;-0.68;100.00;100098.31;1788950;80;21114;-64
2020/12/05 05:14:01;;;;;;;56.83;28.35;;;;;;;-0.67;100.00;100102.99;1788907;80;21130;-64
2020/12/05 05:16:29;;;;;;;54.42;29.23;;;;;;;-0.69;100.00;100117.20;1788793;80;21335;-64
2020/12/05 05:19:20;;;;;;;65.00;28.98;;;;;;;-0.70;100.00;100117.59;1788823;79;21279;-63
2020/12/05 05:21:51;;;;;;;61.75;27.45;;;;;;;-0.69;100.00;100100.73;1788852;80;21089;-63
2020/12/05 05:24:22;;;;;;;52.48;24.98;;;;;;;-0.72;100.00;100098.84;1801235;79;21253;-66
2020/12/05 05:27:06;;;;;;;59.00;29.15;;;;;;;-0.73;100.00;100100.90;1758173;82;21269;-62
2020/12/05 05:29:39;;;;;;;63.58;30.55;;;;;;;-0.72;100.00;100096.31;1756777;82;21139;-64
2020/12/05 05:32:16;;;;;;;59.30;27.52;;;;;;;-0.72;100.00;100104.31;1757188;81;21557;-64
2020/12/05 05:34:41;;;;;;;57.58;27.75;;;;;;;-0.74;100.00;100102.95;1757097;81;21111;-65
2020/12/05 05:37:15;;;;;;;58.68;28.30;;;;;;;-0.75;100.00;100113.84;1751811;82;21280;-65
2020/12/05 05:39:51;;;;;;;52.00;25.17;;;;;;;-0.73;100.00;100126.24;1751826;81;21127;-64
2020/12/05 05:42:33;;;;;;;64.00;29.98;;;;;;;-0.72;100.00;100119.13;1752000;82;21589;-64
2020/12/05 05:45:22;;;;;;;59.40;30.17;;;;;;;-0.73;100.00;100123.71;1752103;82;21162;-63
2020/12/05 05:47:54;;;;;;;53.00;24.77;;;;;;;-0.71;100.00;100118.77;1687016;84;21282;-62
2020/12/05 05:50:27;;;;;;;61.08;29.82;;;;;;;-0.73;100.00;100130.05;1662267;86;21289;-64
2020/12/05 05:53:01;;;;;;;74.30;34.27;;;;;;;-0.71;100.00;100129.78;1662585;86;21178;-64
2020/12/05 05:55:47;;;;;;;62.55;27.62;;;;;;;-0.68;100.00;100130.00;1662397;86;21186;-64
2020/12/05 05:58:18;;;;;;;60.15;30.60;;;;;;;-0.68;100.00;100140.53;1662386;86;21180;-64
2020/12/05 06:00:50;;;;;;;61.23;29.82;;;;;;;-0.67;100.00;100136.82;1662360;86;21155;-62
2020/12/05 06:03:26;;;;;;;68.28;30.95;;;;;;;-0.67;100.00;100125.81;1662472;85;21187;-64
2020/12/05 06:05:58;;;;;;;62.13;30.60;;;;;;;-0.67;100.00;100123.27;1662605;86;21584;-65
2020/12/05 06:08:29;;;;;;;50.92;28.32;;;;;;;-0.64;100.00;100130.22;1662675;86;21339;-65
2020/12/05 06:11:01;;;;;;;58.30;26.12;;;;;;;-0.67;100.00;100120.34;1662479;86;21155;-65
2020/12/05 06:13:32;;;;;;;54.75;25.72;;;;;;;-0.65;100.00;100152.16;1662595;86;21316;-64
2020/12/05 06:16:02;;;;;;;55.85;26.90;;;;;;;-0.70;100.00;100134.06;1662656;86;21171;-64
2020/12/05 06:18:32;;;;;;;60.20;30.50;;;;;;;-0.70;100.00;100142.06;1662569;86;21198;-63
2020/12/05 06:20:59;;;;;;;54.60;27.80;;;;;;;-0.69;100.00;100138.39;1662623;86;21170;-65
2020/12/05 06:23:51;;;;;;;65.08;28.60;;;;;;;-0.68;100.00;100152.81;1662595;86;21169;-64
2020/12/05 06:26:28;;;;;;;68.40;32.93;;;;;;;-0.68;100.00;100142.67;1662387;86;21170;-65
2020/12/05 06:29:01;;;;;;;49.67;25.27;;;;;;;-0.67;100.00;100134.29;1662342;86;21297;-64
2020/12/05 06:31:44;;;;;;;64.17;29.20;;;;;;;-0.68;100.00;100179.43;1662560;86;21186;-65
2020/12/05 06:34:42;;;;;;;58.42;26.95;;;;;;;-0.66;100.00;100138.61;1662533;86;21609;-63
2020/12/05 06:37:14;;;;;;;63.25;32.73;;;;;;;-0.64;100.00;100139.09;1662539;86;21328;-64
2020/12/05 06:39:42;;;;;;;66.05;31.23;;;;;;;-0.62;100.00;100155.30;1660112;86;21308;-65
2020/12/05 06:42:19;;;;;;;67.67;30.65;;;;;;;-0.62;100.00;100152.77;1662640;86;21313;-63
2020/12/05 06:44:47;;;;;;;64.55;32.33;;;;;;;-0.62;100.00;100159.11;1662375;86;21332;-64
2020/12/05 06:47:25;;;;;;;69.42;31.33;;;;;;;-0.62;100.00;100167.59;1702471;83;21139;-64
2020/12/05 06:49:54;;;;;;;80.30;35.17;;;;;;;-0.60;100.00;100167.72;1718851;83;21297;-65
2020/12/05 06:52:31;;;;;;;70.00;32.65;;;;;;;-0.56;100.00;100160.81;1719089;83;21158;-65
2020/12/05 06:55:14;;;;;;;72.75;31.27;;;;;;;-0.53;100.00;100163.61;1719035;83;21159;-64
2020/12/05 06:57:42;;;;;;;62.30;30.20;;;;;;;-0.54;100.00;100160.16;1719315;83;21170;-64
2020/12/05 07:00:24;;;;;;;61.85;29.35;;;;;;;-0.55;100.00;100185.42;1718810;83;21131;-64
2020/12/05 07:02:58;;;;;;;67.55;30.52;;;;;;;-0.57;100.00;100189.09;1718936;83;21321;-65
2020/12/05 07:05:30;;;;;;;72.08;31.02;;;;;;;-0.54;100.00;100188.44;1718871;83;21294;-67
2020/12/05 07:08:00;;;;;;;;;;;;;;;-0.54;100.00;100172.84;1721628;83;21171;-64
2020/12/05 07:10:57;;;;;;;62.67;27.95;;;;;;;-0.55;100.00;100182.89;1715485;83;20161;-64
2020/12/05 07:13:40;;;;;;;72.00;33.48;;;;;;;-0.55;100.00;100201.91;1715440;83;21569;-64
2020/12/05 07:16:11;;;;;;;;;;;;;;;-0.54;100.00;100180.84;1719413;83;21154;-65
2020/12/05 07:18:41;;;;;;;62.47;29.80;;;;;;;-0.50;100.00;100208.20;1665704;84;21086;-65
2020/12/05 07:21:10;;;;;;;77.00;32.67;;;;;;;-0.49;100.00;100198.15;1670989;84;21361;-65
2020/12/05 07:23:38;;;;;;;62.30;32.20;;;;;;;-0.51;100.00;100193.37;1702629;84;21156;-65
2020/12/05 07:26:06;;;;;;;61.10;28.45;;;;;;;-0.47;100.00;100208.42;1710701;84;21155;-64
2020/12/05 07:28:35;;;;;;;69.45;33.40;;;;;;;-0.47;100.00;100205.88;1710699;84;21302;-63
2020/12/05 07:31:04;;;;;;;60.95;30.02;;;;;;;-0.46;100.00;100205.10;1710623;84;21290;-63
2020/12/05 07:33:34;;;;;;;70.20;32.17;;;;;;;-0.45;100.00;100207.77;1710779;84;21325;-64
2020/12/05 07:36:06;;;;;;;58.10;29.52;;;;;;;-0.43;100.00;100216.77;1710581;84;21136;-63
2020/12/05 07:38:37;;;;;;;62.83;29.18;;;;;;;-0.39;100.00;100214.94;1710711;84;21655;-63
2020/12/05 07:41:12;;;;;;;56.77;27.75;;;;;;;-0.37;100.00;100227.75;1710802;84;21180;-62
2020/12/05 07:43:40;;;;;;;62.95;29.57;;;;;;;-0.37;100.00;100228.62;1710578;84;21198;-63
2020/12/05 07:46:11;;;;;;;55.92;26.40;;;;;;;-0.40;100.00;100230.94;1708890;84;21160;-63
2020/12/05 07:48:41;;;;;;;51.57;28.70;;;;;;;-0.45;100.00;100243.66;1695841;84;21311;-64
2020/12/05 07:51:17;;;;;;;65.65;30.20;;;;;;;-0.47;100.00;100224.52;1695620;85;21161;-65
2020/12/05 07:53:47;;;;;;;48.58;24.55;;;;;;;-0.45;100.00;100224.25;1695548;84;21274;-65
2020/12/05 07:56:21;;;;;;;71.22;30.65;;;;;;;-0.45;100.00;100253.80;1695618;84;21675;-63
2020/12/05 07:58:52;;;;;;;65.60;30.23;;;;;;;-0.45;100.00;100258.88;1695681;84;21288;-64
2020/12/05 08:01:52;;;;;;;63.10;31.65;;;;;;;-0.45;100.00;100226.78;1695625;84;21189;-63
2020/12/05 08:04:43;;;;;;;66.35;31.95;;;;;;;-0.44;100.00;100237.80;1694962;84;21177;-63
2020/12/05 08:07:37;;;;;;;67.75;31.07;;;;;;;-0.38;100.00;100234.48;1754114;82;21595;-65
2020/12/05 08:10:17;;;;;;;61.28;27.65;;;;;;;-0.34;100.00;100238.98;1754043;82;21267;-64
2020/12/05 08:13:23;;;;;;;62.98;30.15;;;;;;;-0.37;100.00;100241.30;1754193;82;21275;-65
2020/12/05 08:16:06;;;;;;;66.02;29.32;;;;;;;-0.40;100.00;100242.73;1754338;82;21312;-65
2020/12/05 08:18:37;;;;;;;64.20;32.20;;;;;;;-0.44;100.00;100261.89;1754348;80;21174;-66
2020/12/05 08:21:13;;;;;;;72.27;30.60;;;;;;;-0.45;100.00;100257.60;1754151;82;21268;-64
2020/12/05 08:23:40;;;;;;;67.42;30.62;;;;;;;-0.43;100.00;100261.14;1754108;82;21183;-67
2020/12/05 08:26:15;;;;;;;64.12;30.75;;;;;;;-0.45;100.00;100257.60;1754044;82;21276;-64
2020/12/05 08:28:46;;;;;;;75.78;33.58;;;;;;;-0.44;100.00;100257.70;1754290;80;21161;-63
2020/12/05 08:31:14;;;;;;;;;;;;;;;-0.39;100.00;100260.59;1756575;82;21323;-64
2020/12/05 08:33:48;;;;;;;48.38;25.15;;;;;;;-0.42;100.00;100269.23;1754007;82;20129;-64
2020/12/05 08:36:21;;;;;;;52.10;28.27;;;;;;;-0.45;100.00;100277.89;1754021;80;21141;-65
2020/12/05 08:38:50;;;;;;;61.63;28.62;;;;;;;-0.48;100.00;100276.01;1753873;81;21162;-65
2020/12/05 08:41:20;;;;;;;56.08;26.75;;;;;;;-0.47;100.00;100274.34;1754292;82;21162;-64
2020/12/05 08:43:47;;;;;;;62.70;29.52;;;;;;;-0.45;100.00;100287.64;1754200;82;21158;-65
2020/12/05 08:46:22;;;;;;;62.58;30.25;;;;;;;-0.46;100.00;100282.44;1753946;81;21296;-64
2020/12/05 08:48:51;;;;;;;64.92;28.65;;;;;;;-0.45;100.00;100282.57;1754078;82;21114;-63
2020/12/05 08:51:27;;;;;;;59.95;30.82;;;;;;;-0.48;100.00;100284.00;1754020;82;21149;-64
2020/12/05 08:54:07;;;;;;;70.52;31.35;;;;;;;-0.47;100.00;100270.16;1733959;82;21731;-64
2020/12/05 08:56:35;;;;;;;52.60;26.50;;;;;;;-0.44;100.00;100272.03;1754118;80;21153;-64
2020/12/05 08:59:02;;;;;;;63.65;28.52;;;;;;;-0.46;100.00;100279.55;1754133;80;21283;-64
2020/12/05 09:01:43;;;;;;;60.15;28.47;;;;;;;-0.47;100.00;100272.69;1754296;82;21268;-64
2020/12/05 09:04:16;;;;;;;55.00;24.80;;;;;;;-0.48;100.00;100263.72;1754003;82;21117;-64
2020/12/05 09:06:44;;;;;;;57.80;29.65;;;;;;;-0.49;100.00;100277.14;1751650;81;21279;-63
2020/12/05 09:09:12;;;;;;;58.17;29.50;;;;;;;-0.50;100.00;100265.25;1753986;80;21118;-65
2020/12/05 09:11:40;;;;;;;70.28;31.82;;;;;;;-0.47;100.00;100261.28;1753981;82;21284;-64
2020/12/05 09:14:07;;;;;;;62.50;30.37;;;;;;;-0.46;100.00;100258.35;1754308;80;21279;-64
2020/12/05 09:16:36;;;;;;;76.30;32.45;;;;;;;-0.40;100.00;100249.95;1754083;82;21121;-64
2020/12/05 09:19:03;;;;;;;65.50;31.73;;;;;;;-0.34;100.00;100252.06;1754355;82;21138;-64
2020/12/05 09:21:36;;;;;;;65.52;33.45;;;;;;;-0.30;100.00;100242.27;1754159;82;21162;-65
2020/12/05 09:24:05;;;;;;;61.08;29.48;;;;;;;-0.29;100.00;100244.02;1754193;82;21110;-65
2020/12/05 09:26:37;;;;;;;63.87;29.52;;;;;;;-0.27;100.00;100242.88;1754263;82;21284;-63
2020/12/05 09:29:04;;;;;;;66.53;29.77;;;;;;;-0.27;100.00;100258.09;1752517;80;21304;-64
2020/12/05 09:31:32;;;;;;;56.68;30.92;;;;;;;-0.31;100.00;100239.20;1754140;82;21615;-65
2020/12/05 09:34:02;;;;;;;63.98;31.77;;;;;;;-0.30;100.00;100229.58;1754074;82;21137;-65
2020/12/05 09:36:33;;;;;;;65.57;30.05;;;;;;;-0.28;100.00;100237.28;1753962;82;21142;-64
2020/12/05 09:39:01;;;;;;;60.45;29.20;;;;;;;-0.30;100.00;100248.61;1753974;80;21146;-64
2020/12/05 09:41:35;;;;;;;58.02;29.95;;;;;;;-0.28;100.00;100238.20;1753959;82;21141;-64
2020/12/05 09:44:02;;;;;;;57.00;25.65;;;;;;;-0.29;100.00;100223.73;1754212;80;21161;-64
2020/12/05 09:46:30;;;;;;;59.63;28.85;;;;;;;-0.29;100.00;100232.60;1753892;81;21334;-64
2020/12/05 09:48:58;;;;;;;60.52;30.00;;;;;;;-0.28;100.00;100238.55;1745998;81;21235;-64
2020/12/05 09:51:28;;;;;;;66.10;31.05;;;;;;;-0.29;100.00;100227.53;1746004;81;21145;-64
2020/12/05 09:56:37;;;;;;;48.28;25.10;;;;;;;-0.30;100.00;100251.14;1760682;81;21129;-64
2020/12/05 09:59:05;;;;;;;58.23;27.58;;;;;;;-0.32;100.00;100250.14;1760657;81;21560;-63
2020/12/05 10:01:33;;;;;;;63.02;29.70;;;;;;;-0.33;100.00;100244.94;1760668;81;21129;-63
2020/12/05 10:04:01;;;;;;;63.73;29.85;;;;;;;-0.34;100.00;100251.67;1760861;81;21145;-65
2020/12/05 10:06:29;;;;;;;65.40;33.48;;;;;;;-0.31;100.00;100251.89;1760662;81;21311;-64
2020/12/05 10:08:56;;;;;;;58.65;30.17;;;;;;;-0.30;100.00;100246.07;1760705;81;21280;-64
2020/12/05 10:11:24;;;;;;;56.68;29.02;;;;;;;-0.25;100.00;100256.56;1761028;81;21254;-64
2020/12/05 10:13:52;;;;;;;62.43;30.27;;;;;;;-0.25;100.00;100270.13;1760837;81;21251;-64
2020/12/05 10:16:19;;;;;;;54.90;28.40;;;;;;;-0.25;100.00;100256.56;1761053;81;21121;-63
2020/12/05 10:18:47;;;;;;;67.70;34.05;;;;;;;-0.25;100.00;100268.86;1760819;81;21137;-64
2020/12/05 10:21:15;;;;;;;75.12;36.77;;;;;;;-0.23;100.00;100255.91;1761029;81;21259;-64
2020/12/05 10:23:43;;;;;;;76.40;38.05;;;;;;;-0.22;100.00;100252.59;1761020;81;21140;-63
2020/12/05 10:26:10;;;;;;;59.73;30.70;;;;;;;-0.18;100.00;100254.08;1760822;81;21133;-64
2020/12/05 10:28:38;;;;;;;64.95;32.78;;;;;;;-0.17;100.00;100262.20;1760986;81;21153;-64
2020/12/05 10:31:06;;;;;;;75.20;34.08;;;;;;;-0.19;100.00;100246.86;1731479;81;21215;-63
2020/12/05 10:33:34;;;;;;;75.87;34.18;;;;;;;-0.20;100.00;100273.37;1760808;81;21271;-64
2020/12/05 10:36:02;;;;;;;67.62;33.92;;;;;;;-0.20;100.00;100250.53;1761175;81;21567;-64
2020/12/05 10:38:30;;;;;;;68.47;35.00;;;;;;;-0.18;100.00;100239.73;1760782;81;21125;-64
2020/12/05 10:40:59;;;;;;;67.72;32.58;;;;;;;-0.17;100.00;100259.67;1760898;81;21113;-64
2020/12/05 10:43:27;;;;;;;61.58;31.20;;;;;;;-0.22;100.00;100262.73;1760775;81;21141;-64
2020/12/05 10:45:55;;;;;;;57.00;29.18;;;;;;;-0.26;100.00;100253.12;1760957;81;21271;-64
2020/12/05 10:48:23;;;;;;;70.37;28.75;;;;;;;-0.30;100.00;100299.33;1760816;81;21276;-64
2020/12/05 10:50:58;;;;;;;60.43;30.95;;;;;;;-0.31;100.00;100273.45;1761067;81;21283;-64
2020/12/05 10:53:26;;;;;;;61.30;29.87;;;;;;;-0.33;100.00;100270.30;1760959;81;21279;-65
2020/12/05 10:55:54;;;;;;;68.57;31.55;;;;;;;-0.34;100.00;100267.28;1756217;81;21137;-64
2020/12/05 10:58:22;;;;;;;73.67;36.23;;;;;;;-0.34;100.00;100252.94;1753297;82;21089;-64
2020/12/05 11:00:50;;;;;;;77.97;35.03;;;;;;;-0.34;100.00;100265.62;1753281;82;21149;-65
2020/12/05 11:03:17;;;;;;;83.07;39.88;;;;;;;-0.32;100.00;100271.70;1753355;82;21288;-64
2020/12/05 11:05:45;;;;;;;82.95;39.35;;;;;;;-0.30;100.00;100272.70;1753524;81;21152;-63
2020/12/05 11:08:14;;;;;;;80.42;39.10;;;;;;;-0.25;100.00;100280.27;1753319;82;21337;-63
2020/12/05 11:10:43;;;;;;;76.10;37.03;;;;;;;-0.23;100.00;100272.75;1753328;82;21182;-63
2020/12/05 11:13:11;;;;;;;84.05;38.30;;;;;;;-0.28;100.00;100272.44;1753671;82;21098;-64
2020/12/05 11:15:39;;;;;;;81.25;38.23;;;;;;;-0.25;100.00;100276.47;1753312;82;21133;-63
2020/12/05 11:18:08;;;;;;;82.37;36.60;;;;;;;-0.23;100.00;100283.81;1753424;82;21286;-64
2020/12/05 11:20:35;;;;;;;72.95;35.75;;;;;;;-0.24;100.00;100287.09;1753396;82;21105;-62
2020/12/05 11:23:03;;;;;;;87.45;42.30;;;;;;;-0.28;100.00;100291.82;1753247;82;21145;-63